This is the latest recevied weather packets stored in our database for station/object KE4AMH. If no packets are shown the sender has not sent any weather packets the latest 10 day(s).
| Time | Temp. | Humidity | Pressure | Rain* | Wind** | Luminosity | Snow |
|---|---|---|---|---|---|---|---|
| 1778100998 | 27.22° C | 65% | 1012.4 hPa | 0 mm | - | 113 W/m² | - |
| 1778100692 | 26.67° C | 66% | 1012.7 hPa | 0 mm | - | 144 W/m² | - |
| 1778100391 | 26.67° C | 68% | 1012.5 hPa | 0 mm | - | 204 W/m² | - |
| 1778100087 | 26.67° C | 68% | 1012.7 hPa | 0 mm | - | 127 W/m² | - |
| 1778099786 | 26.67° C | 68% | 1012.6 hPa | 0 mm | - | 148 W/m² | - |
| 1778099482 | 26.11° C | 69% | 1012.6 hPa | 0 mm | - | 119 W/m² | - |
| 1778099180 | 26.11° C | 68% | 1012.8 hPa | 0 mm | - | 137 W/m² | - |
| 1778098876 | 26.11° C | 67% | 1012.7 hPa | 0 mm | - | 157 W/m² | - |
| 1778098573 | 26.67° C | 67% | 1012.7 hPa | 0 mm | - | 166 W/m² | - |
| 1778098270 | 26.67° C | 69% | 1012.9 hPa | 0 mm | - | 170 W/m² | - |
| 1778097966 | 26.11° C | 68% | 1013.1 hPa | 0 mm | - | 212 W/m² | - |
| 1778097663 | 26.11° C | 68% | 1012.9 hPa | 0 mm | - | 194 W/m² | - |
| 1778097359 | 25.56° C | 69% | 1013.4 hPa | 0 mm | - | 116 W/m² | - |
| 1778097056 | 26.11° C | 68% | 1013.5 hPa | 0 mm | - | 148 W/m² | - |
| 1778096754 | 26.11° C | 68% | 1013.4 hPa | 0 mm | - | 177 W/m² | - |
| 1778096450 | 26.67° C | 67% | 1013.5 hPa | 0 mm | - | 196 W/m² | - |
| 1778096148 | 26.67° C | 66% | 1013.4 hPa | 0 mm | - | 276 W/m² | - |
| 1778095845 | 26.11° C | 67% | 1013.4 hPa | 0 mm | - | 237 W/m² | - |
| 1778095541 | 26.11° C | 65% | 1013.5 hPa | 0 mm | - | 340 W/m² | - |
| 1778095237 | 27.22° C | 65% | 1013.5 hPa | 0 mm | - | 350 W/m² | - |
| 1778094934 | 26.11° C | 67% | 1014 hPa | 0 mm | - | 593 W/m² | - |
| 1778094630 | 26.11° C | 67% | 1013.9 hPa | 0 mm | - | 514 W/m² | - |
| 1778094328 | 25.56° C | 69% | 1014.1 hPa | 0 mm | - | 254 W/m² | - |
| 1778094025 | 26.11° C | 66% | 1014.2 hPa | 0 mm | - | 218 W/m² | - |
| 1778093722 | 25.56° C | 69% | 1014.3 hPa | 0 mm | - | 356 W/m² | - |
* Rain latest hour (hover to see other rain measurements)
** Current wind speed in m/s (hover to see current wind gust speed)